createdAt,value
2022-09-15T00:01:32.593Z,15.95
2022-09-15T00:04:00.803Z,16.25
2022-09-15T00:06:28.950Z,17.48
2022-09-15T00:08:59.337Z,17.33
2022-09-15T00:11:30.387Z,18.20
2022-09-15T00:14:02.549Z,18.10
2022-09-15T00:16:34.125Z,18.05
2022-09-15T00:19:02.993Z,18.45
2022-09-15T00:21:33.456Z,17.13
2022-09-15T00:24:02.963Z,19.63
2022-09-15T00:26:32.772Z,21.08
2022-09-15T00:29:02.563Z,18.85
2022-09-15T00:31:34.485Z,20.50
2022-09-15T00:34:04.039Z,20.58
2022-09-15T00:36:32.434Z,20.23
2022-09-15T00:39:00.531Z,18.70
2022-09-15T00:41:28.781Z,22.17
2022-09-15T00:43:59.557Z,23.55
2022-09-15T00:46:33.813Z,20.17
2022-09-15T00:49:08.428Z,20.48
2022-09-15T00:51:53.839Z,22.17
2022-09-15T00:54:27.911Z,18.38
2022-09-15T00:57:06.586Z,20.45
2022-09-15T00:59:38.125Z,20.70
2022-09-15T01:02:14.181Z,21.60
2022-09-15T01:04:44.132Z,22.20
2022-09-15T01:07:16.984Z,18.77
2022-09-15T01:09:51.003Z,18.27
2022-09-15T01:12:19.876Z,18.85
2022-09-15T01:14:47.848Z,19.65
2022-09-15T01:17:30.740Z,19.60
2022-09-15T01:20:44.906Z,17.52
2022-09-15T01:23:58.596Z,19.65
2022-09-15T01:27:30.585Z,18.25
2022-09-15T01:30:09.384Z,17.73
2022-09-15T01:33:06.763Z,17.40
2022-09-15T01:36:12.332Z,18.25
2022-09-15T01:39:03.462Z,18.73
2022-09-15T01:41:37.631Z,19.23
2022-09-15T01:44:10.304Z,20.15
2022-09-15T01:46:46.991Z,21.02
2022-09-15T01:49:19.500Z,20.05
2022-09-15T01:51:51.698Z,20.35
2022-09-15T01:54:24.476Z,21.73
2022-09-15T01:56:52.572Z,21.27
2022-09-15T01:59:20.761Z,22.27
2022-09-15T02:01:59.693Z,20.40
2022-09-15T02:04:34.648Z,21.30
2022-09-15T02:07:11.574Z,21.40
2022-09-15T02:09:46.477Z,20.67
2022-09-15T02:12:21.438Z,22.35
2022-09-15T02:14:57.625Z,21.73
2022-09-15T02:17:32.756Z,20.13
2022-09-15T02:20:16.075Z,21.98
2022-09-15T02:22:50.376Z,22.80
2022-09-15T02:25:25.438Z,21.75
2022-09-15T02:27:59.887Z,22.88
2022-09-15T02:30:31.683Z,22.77
2022-09-15T02:33:06.785Z,24.25
2022-09-15T02:35:37.048Z,25.27
2022-09-15T02:38:09.115Z,24.17
2022-09-15T02:40:40.512Z,23.00
2022-09-15T02:43:13.793Z,21.88
2022-09-15T02:45:42.214Z,23.25
2022-09-15T02:48:11.700Z,23.38
2022-09-15T02:50:40.021Z,23.65
2022-09-15T02:53:10.362Z,23.73
2022-09-15T02:55:38.920Z,24.98
2022-09-15T02:58:07.174Z,23.33
2022-09-15T03:00:38.482Z,21.90
2022-09-15T03:03:06.658Z,22.58
2022-09-15T03:05:35.992Z,24.42
2022-09-15T03:08:04.519Z,25.98
2022-09-15T03:10:33.453Z,24.27
2022-09-15T03:13:01.579Z,24.10
2022-09-15T03:15:29.758Z,23.17
2022-09-15T03:17:57.820Z,21.85
2022-09-15T03:20:28.759Z,23.35
2022-09-15T03:22:58.150Z,22.75
2022-09-15T03:25:27.371Z,24.85
2022-09-15T03:27:55.502Z,25.00
2022-09-15T03:30:24.277Z,26.40
2022-09-15T03:32:52.487Z,24.65
2022-09-15T03:35:20.456Z,25.30
2022-09-15T03:37:48.480Z,24.67
2022-09-15T03:40:18.445Z,25.55
2022-09-15T03:42:46.733Z,25.55
2022-09-15T03:45:14.859Z,25.45
2022-09-15T03:47:42.873Z,27.00
2022-09-15T03:50:11.202Z,25.63
2022-09-15T03:52:39.314Z,25.75
2022-09-15T03:55:08.488Z,25.73
2022-09-15T03:57:37.917Z,25.35
2022-09-15T04:00:08.495Z,26.55
2022-09-15T04:02:36.584Z,25.38
2022-09-15T04:05:05.154Z,28.40
2022-09-15T04:07:33.238Z,26.80
2022-09-15T04:10:01.362Z,27.80
2022-09-15T04:12:32.472Z,31.15
2022-09-15T04:15:01.964Z,29.90
2022-09-15T04:17:30.018Z,29.70
2022-09-15T04:19:58.145Z,27.45
2022-09-15T04:22:26.278Z,29.30
2022-09-15T04:24:54.573Z,29.67
2022-09-15T04:27:23.209Z,29.58
2022-09-15T04:29:52.636Z,27.65
2022-09-15T04:32:22.513Z,28.45
2022-09-15T04:34:50.625Z,27.73
2022-09-15T04:37:18.942Z,25.00
2022-09-15T04:39:47.029Z,25.60
2022-09-15T04:42:15.114Z,26.95
2022-09-15T04:44:43.395Z,26.17
2022-09-15T04:47:11.688Z,25.45
2022-09-15T04:49:41.164Z,25.17
2022-09-15T04:52:09.926Z,27.27
2022-09-15T04:54:38.512Z,25.40
2022-09-15T04:57:06.837Z,25.55
2022-09-15T04:59:35.424Z,25.60
2022-09-15T05:02:04.299Z,24.42
2022-09-15T05:04:32.701Z,28.45
2022-09-15T05:07:02.422Z,25.52
2022-09-15T05:09:31.030Z,24.70
2022-09-15T05:11:59.292Z,25.98
2022-09-15T05:14:27.379Z,25.80
2022-09-15T05:16:55.529Z,25.55
2022-09-15T05:19:23.826Z,25.88
2022-09-15T05:21:51.873Z,26.00
2022-09-15T05:24:21.638Z,26.17
2022-09-15T05:26:49.999Z,25.42
2022-09-15T05:29:18.232Z,24.42
2022-09-15T05:31:46.381Z,23.73
2022-09-15T05:34:15.295Z,25.60
2022-09-15T05:36:43.522Z,24.33
2022-09-15T05:39:11.756Z,24.48
2022-09-15T05:41:41.303Z,24.15
2022-09-15T05:44:11.570Z,24.17
2022-09-15T05:46:39.780Z,24.60
2022-09-15T05:49:08.743Z,24.75
2022-09-15T05:51:37.737Z,24.98
2022-09-15T05:54:05.993Z,25.58
2022-09-15T05:56:34.360Z,24.45
2022-09-15T05:59:03.880Z,20.67
2022-09-15T06:01:32.157Z,25.92
2022-09-15T06:04:00.564Z,23.63
2022-09-15T06:06:28.745Z,25.30
2022-09-15T06:08:59.599Z,24.38
2022-09-15T06:11:30.481Z,23.65
2022-09-15T06:14:00.967Z,26.15
2022-09-15T06:16:34.131Z,24.20
2022-09-15T06:19:02.738Z,24.67
2022-09-15T06:21:33.179Z,24.00
2022-09-15T06:24:04.511Z,24.45
2022-09-15T06:26:32.700Z,22.58
2022-09-15T06:29:03.769Z,23.08
2022-09-15T06:31:35.629Z,22.17
2022-09-15T06:34:05.297Z,23.30
2022-09-15T06:36:34.414Z,22.60
2022-09-15T06:39:03.067Z,23.27
2022-09-15T06:41:47.406Z,20.00
2022-09-15T06:44:19.702Z,21.60
2022-09-15T06:46:49.781Z,19.17
2022-09-15T06:49:18.157Z,21.05
2022-09-15T06:51:46.907Z,18.67
2022-09-15T06:54:16.112Z,22.35
2022-09-15T06:56:45.102Z,21.77
2022-09-15T06:59:13.988Z,20.13
2022-09-15T07:01:43.034Z,19.52
2022-09-15T07:04:12.476Z,18.42
2022-09-15T07:06:41.124Z,18.02
2022-09-15T07:09:11.564Z,19.48
2022-09-15T07:11:39.811Z,20.17
2022-09-15T07:14:07.987Z,19.17
2022-09-15T07:16:36.072Z,18.77
2022-09-15T07:19:05.854Z,16.88
2022-09-15T07:21:35.840Z,18.65
2022-09-15T07:24:07.339Z,19.45
2022-09-15T07:26:36.273Z,20.48
2022-09-15T07:29:07.460Z,18.95
2022-09-15T07:31:39.507Z,20.58
2022-09-15T07:34:08.347Z,18.67
2022-09-15T07:36:38.035Z,16.20
2022-09-15T07:39:07.003Z,17.85
2022-09-15T07:41:35.363Z,15.52
2022-09-15T07:44:04.171Z,18.73
2022-09-15T07:46:34.345Z,17.30
2022-09-15T07:49:03.298Z,20.67
2022-09-15T07:51:31.996Z,20.02
2022-09-15T07:54:01.716Z,18.83
2022-09-15T07:56:29.839Z,19.42
2022-09-15T07:58:58.804Z,17.30
2022-09-15T08:01:27.528Z,16.42
2022-09-15T08:03:56.016Z,16.33
2022-09-15T08:06:26.490Z,17.30
2022-09-15T08:08:59.959Z,15.25
2022-09-15T08:11:30.620Z,14.40
2022-09-15T08:14:03.456Z,14.13
2022-09-15T08:16:31.677Z,13.20
2022-09-15T08:19:00.087Z,12.80
2022-09-15T08:21:29.105Z,12.98
2022-09-15T08:23:59.639Z,11.95
2022-09-15T08:26:31.036Z,10.75
2022-09-15T08:28:59.436Z,9.23
2022-09-15T08:31:27.705Z,10.27
2022-09-15T08:33:57.666Z,8.65
2022-09-15T08:36:27.911Z,8.45
2022-09-15T08:38:56.395Z,6.85
2022-09-15T08:41:30.242Z,6.32
2022-09-15T08:44:09.669Z,6.78
2022-09-15T08:46:43.259Z,6.97
2022-09-15T08:49:35.440Z,6.32
2022-09-15T08:52:15.754Z,6.57
2022-09-15T08:54:43.922Z,6.28
2022-09-15T08:57:20.203Z,5.72
2022-09-15T08:59:49.817Z,5.78
2022-09-15T09:02:56.075Z,4.85
2022-09-15T09:05:52.093Z,5.20
2022-09-15T09:08:55.216Z,4.57
2022-09-15T09:11:35.853Z,4.40
2022-09-15T09:14:17.985Z,4.47
2022-09-15T09:17:13.384Z,4.25
2022-09-15T09:20:03.101Z,4.10
2022-09-15T09:22:36.329Z,3.38
2022-09-15T09:25:21.433Z,3.67
2022-09-15T09:27:55.111Z,3.70
2022-09-15T09:30:25.366Z,4.03
2022-09-15T09:33:10.483Z,3.20
2022-09-15T09:35:45.409Z,2.80
2022-09-15T09:38:20.705Z,3.00
2022-09-15T09:40:50.820Z,2.90
2022-09-15T09:43:19.398Z,2.78
2022-09-15T09:45:47.707Z,2.10
2022-09-15T09:48:22.136Z,2.15
2022-09-15T09:50:51.145Z,2.30
2022-09-15T09:53:26.458Z,2.13
2022-09-15T09:55:56.312Z,2.13
2022-09-15T09:58:26.574Z,1.90
2022-09-15T10:00:55.048Z,2.17
2022-09-15T10:03:32.031Z,1.88
2022-09-15T10:06:08.082Z,1.85
2022-09-15T10:08:37.700Z,1.60
2022-09-15T10:11:08.809Z,1.75
2022-09-15T10:13:50.595Z,1.73
2022-09-15T10:16:20.323Z,1.40
2022-09-15T10:18:54.189Z,1.30
2022-09-15T10:21:26.113Z,1.40
2022-09-15T10:23:54.455Z,1.42
2022-09-15T10:26:33.061Z,1.00
2022-09-15T10:29:15.235Z,0.90
2022-09-15T10:31:45.076Z,1.02
2022-09-15T10:34:32.553Z,1.10
2022-09-15T10:37:14.517Z,1.00
2022-09-15T10:42:38.956Z,1.00
2022-09-15T10:45:27.744Z,1.30
2022-09-15T10:48:39.521Z,1.45
2022-09-15T10:51:27.840Z,1.00
2022-09-15T10:54:36.353Z,1.08
2022-09-15T10:57:22.304Z,1.10
2022-09-15T10:59:59.675Z,1.30
2022-09-15T11:03:03.415Z,1.50
2022-09-15T11:05:48.642Z,1.30
2022-09-15T11:08:47.242Z,1.00
2022-09-15T11:11:23.461Z,1.15
2022-09-15T11:14:09.702Z,1.05
2022-09-15T11:16:57.428Z,0.98
2022-09-15T11:19:53.297Z,0.90
2022-09-15T11:22:27.705Z,1.20
2022-09-15T11:25:01.546Z,1.10
2022-09-15T11:27:36.623Z,0.88
2022-09-15T11:30:14.856Z,1.27
2022-09-15T11:32:52.898Z,1.52
2022-09-15T11:35:37.610Z,0.90
2022-09-15T11:41:20.981Z,1.77
2022-09-15T11:44:16.734Z,1.63
2022-09-15T11:47:01.663Z,1.10
2022-09-15T11:49:38.209Z,0.90
2022-09-15T11:52:33.032Z,0.75
2022-09-15T11:55:14.690Z,1.15
2022-09-15T11:57:52.064Z,1.65
2022-09-15T12:00:21.373Z,1.20
2022-09-15T12:02:59.025Z,1.00
2022-09-15T12:05:32.355Z,0.98
2022-09-15T12:08:07.684Z,1.10
2022-09-15T12:10:41.129Z,1.23
2022-09-15T12:13:18.715Z,1.20
2022-09-15T12:15:48.680Z,1.15
2022-09-15T12:18:38.443Z,1.10
2022-09-15T12:21:16.359Z,1.10
2022-09-15T12:23:53.725Z,1.10
2022-09-15T12:26:24.594Z,2.05
2022-09-15T12:28:57.911Z,1.10
2022-09-15T12:31:38.672Z,1.30
2022-09-15T12:34:38.364Z,1.30
2022-09-15T12:37:14.638Z,1.00
2022-09-15T12:39:44.820Z,1.00
2022-09-15T12:42:20.363Z,1.23
2022-09-15T12:44:54.472Z,1.13
2022-09-15T12:47:28.993Z,1.30
2022-09-15T12:50:03.296Z,1.65
2022-09-15T12:52:32.109Z,1.20
2022-09-15T12:55:04.617Z,1.65
2022-09-15T12:57:37.927Z,0.93
2022-09-15T13:00:45.610Z,1.10
2022-09-15T13:03:55.229Z,1.00
2022-09-15T13:06:25.491Z,0.85
2022-09-15T13:09:27.496Z,0.80
2022-09-15T13:11:57.292Z,1.02
2022-09-15T13:14:35.218Z,1.60
2022-09-15T13:17:14.248Z,0.90
2022-09-15T13:19:46.647Z,1.10
2022-09-15T13:22:27.291Z,1.10
2022-09-15T13:25:02.074Z,0.90
2022-09-15T13:27:36.739Z,1.05
2022-09-15T13:30:24.121Z,1.17
2022-09-15T13:33:06.006Z,0.93
2022-09-15T13:36:01.589Z,0.90
2022-09-15T13:39:08.611Z,0.77
2022-09-15T13:42:05.752Z,1.00
2022-09-15T13:44:58.615Z,0.90
2022-09-15T13:47:50.944Z,0.95
2022-09-15T13:50:25.785Z,0.80
2022-09-15T13:53:21.653Z,0.90
2022-09-15T13:55:50.147Z,1.33
2022-09-15T14:01:12.618Z,1.00
2022-09-15T14:03:46.933Z,0.80
2022-09-15T14:06:21.002Z,1.13
2022-09-15T14:08:53.689Z,1.00
2022-09-15T14:11:30.162Z,0.88
2022-09-15T14:14:00.708Z,1.10
2022-09-15T14:16:35.341Z,0.90
2022-09-15T14:19:21.223Z,0.90
2022-09-15T14:21:53.774Z,0.98
2022-09-15T14:24:29.601Z,0.90
2022-09-15T14:27:03.340Z,0.90
2022-09-15T14:29:31.554Z,1.30
2022-09-15T14:32:04.030Z,1.23
2022-09-15T14:34:36.951Z,0.90
2022-09-15T14:37:09.054Z,0.80
2022-09-15T14:39:40.245Z,1.08
2022-09-15T14:42:21.799Z,0.95
2022-09-15T14:47:43.245Z,0.88
2022-09-15T14:50:16.581Z,1.08
2022-09-15T14:52:50.869Z,1.00
2022-09-15T14:55:25.656Z,0.98
2022-09-15T14:58:00.655Z,1.23
2022-09-15T15:00:35.039Z,2.13
2022-09-15T15:03:21.409Z,0.55
2022-09-15T15:06:02.544Z,0.93
2022-09-15T15:08:40.812Z,1.00
2022-09-15T15:11:10.997Z,1.08
2022-09-15T15:13:43.560Z,1.00
2022-09-15T15:16:27.005Z,0.80
2022-09-15T15:18:57.066Z,0.75
2022-09-15T15:21:41.276Z,0.88
2022-09-15T15:24:20.579Z,0.70
2022-09-15T15:26:50.810Z,0.80
2022-09-15T15:29:44.030Z,0.70
2022-09-15T15:32:15.702Z,0.80
2022-09-15T15:34:50.797Z,0.70
2022-09-15T15:37:31.330Z,1.00
2022-09-15T15:40:05.728Z,1.00
2022-09-15T15:42:34.407Z,0.70
2022-09-15T15:45:20.712Z,0.70
2022-09-15T15:47:49.146Z,1.00
2022-09-15T15:50:21.171Z,1.00
2022-09-15T15:52:50.424Z,0.80
2022-09-15T15:55:22.690Z,1.00
2022-09-15T15:57:53.360Z,1.08
2022-09-15T16:00:24.886Z,0.95
2022-09-15T16:02:54.007Z,1.80
2022-09-15T16:05:26.734Z,1.00
2022-09-15T16:07:57.216Z,0.88
2022-09-15T16:10:31.606Z,0.85
2022-09-15T16:12:59.700Z,1.10
2022-09-15T16:15:28.407Z,1.25
2022-09-15T16:17:56.645Z,1.20
2022-09-15T16:20:25.150Z,0.93
2022-09-15T16:22:53.732Z,1.20
2022-09-15T16:25:33.009Z,0.82
2022-09-15T16:28:01.593Z,1.02
2022-09-15T16:30:29.829Z,0.90
2022-09-15T16:32:58.465Z,1.20
2022-09-15T16:35:37.168Z,1.30
2022-09-15T16:38:05.258Z,1.00
2022-09-15T16:40:36.968Z,1.20
2022-09-15T16:45:39.978Z,1.70
2022-09-15T16:48:09.764Z,0.98
2022-09-15T16:50:45.833Z,0.93
2022-09-15T16:53:20.262Z,0.88
2022-09-15T16:55:51.551Z,0.85
2022-09-15T16:58:22.146Z,0.95
2022-09-15T17:00:52.690Z,0.90
2022-09-15T17:03:23.879Z,0.75
2022-09-15T17:05:53.879Z,0.77
2022-09-15T17:08:25.685Z,0.70
2022-09-15T17:10:58.255Z,0.80
2022-09-15T17:13:30.403Z,0.70
2022-09-15T17:15:59.625Z,0.77
2022-09-15T17:18:29.041Z,0.60
2022-09-15T17:20:57.181Z,0.60
2022-09-15T17:23:28.677Z,0.70
2022-09-15T17:26:00.172Z,0.93
2022-09-15T17:28:31.148Z,0.60
2022-09-15T17:31:01.395Z,0.60
2022-09-15T17:33:31.030Z,1.13
2022-09-15T17:36:00.737Z,0.70
2022-09-15T17:38:29.131Z,0.57
2022-09-15T17:40:58.835Z,0.60
2022-09-15T17:43:30.655Z,0.80
2022-09-15T17:45:59.047Z,0.68
2022-09-15T17:48:27.306Z,0.70
2022-09-15T17:50:55.415Z,0.70
2022-09-15T17:53:26.706Z,0.57
2022-09-15T17:55:56.464Z,0.88
2022-09-15T17:58:29.847Z,0.80
2022-09-15T18:00:58.983Z,0.60
2022-09-15T18:03:30.621Z,0.60
2022-09-15T18:06:00.839Z,0.70
2022-09-15T18:08:29.259Z,0.68
2022-09-15T18:10:57.289Z,1.15
2022-09-15T18:13:29.700Z,0.98
2022-09-15T18:15:58.747Z,0.98
2022-09-15T18:18:28.872Z,0.70
2022-09-15T18:20:58.737Z,0.73
2022-09-15T18:23:29.616Z,0.60
2022-09-15T18:25:58.154Z,0.50
2022-09-15T18:28:27.583Z,0.52
2022-09-15T18:30:57.036Z,0.70
2022-09-15T18:33:27.035Z,1.17
2022-09-15T18:35:58.852Z,0.65
2022-09-15T18:38:28.051Z,0.50
2022-09-15T18:40:57.708Z,0.60
2022-09-15T18:43:28.799Z,0.60
2022-09-15T18:46:00.093Z,0.80
2022-09-15T18:48:29.147Z,0.43
2022-09-15T18:50:57.750Z,0.80
2022-09-15T18:53:26.044Z,0.65
2022-09-15T18:55:54.087Z,0.73
2022-09-15T18:58:22.711Z,0.60
2022-09-15T19:00:52.125Z,0.57
2022-09-15T19:03:20.196Z,0.80
2022-09-15T19:05:48.553Z,0.63
2022-09-15T19:08:16.973Z,0.60
2022-09-15T19:10:45.103Z,0.90
2022-09-15T19:13:14.205Z,0.57
2022-09-15T19:15:43.820Z,0.50
2022-09-15T19:18:13.669Z,1.27
2022-09-15T19:20:42.051Z,0.47
2022-09-15T19:23:10.589Z,0.77
2022-09-15T19:25:41.362Z,0.50
2022-09-15T19:28:09.855Z,0.70
2022-09-15T19:30:37.977Z,0.63
2022-09-15T19:33:06.126Z,0.60
2022-09-15T19:35:35.447Z,1.17
2022-09-15T19:38:03.513Z,0.68
2022-09-15T19:40:31.626Z,0.77
2022-09-15T19:42:59.710Z,1.38
2022-09-15T19:45:27.971Z,0.70
2022-09-15T19:47:57.308Z,0.60
2022-09-15T19:50:25.320Z,0.60
2022-09-15T19:52:58.950Z,0.70
2022-09-15T19:55:28.738Z,0.50
2022-09-15T19:57:56.787Z,0.68
2022-09-15T20:00:24.856Z,0.50
2022-09-15T20:02:52.940Z,0.70
2022-09-15T20:05:21.702Z,1.00
2022-09-15T20:07:50.094Z,0.70
2022-09-15T20:10:19.558Z,0.98
2022-09-15T20:12:47.588Z,0.60
2022-09-15T20:15:15.778Z,0.70
2022-09-15T20:17:43.832Z,0.90
2022-09-15T20:20:12.464Z,0.93
2022-09-15T20:22:40.585Z,0.80
2022-09-15T20:25:09.282Z,0.50
2022-09-15T20:27:38.696Z,0.70
2022-09-15T20:30:08.807Z,0.70
2022-09-15T20:32:37.140Z,0.80
2022-09-15T20:35:05.990Z,0.60
2022-09-15T20:37:37.453Z,1.20
2022-09-15T20:40:07.851Z,0.60
2022-09-15T20:42:36.523Z,0.60
2022-09-15T20:45:07.477Z,0.60
2022-09-15T20:47:35.798Z,0.73
2022-09-15T20:50:03.920Z,1.27
2022-09-15T20:52:36.029Z,0.57
2022-09-15T20:55:07.286Z,0.60
2022-09-15T20:57:35.317Z,0.75
2022-09-15T21:00:07.718Z,1.15
2022-09-15T21:02:35.894Z,1.00
2022-09-15T21:05:04.197Z,0.77
2022-09-15T21:07:32.268Z,0.55
2022-09-15T21:10:00.311Z,0.70
2022-09-15T21:12:28.507Z,0.68
2022-09-15T21:14:57.893Z,1.20
2022-09-15T21:17:28.910Z,0.80
2022-09-15T21:19:56.989Z,0.70
2022-09-15T21:22:25.047Z,0.68
2022-09-15T21:24:53.093Z,0.68
2022-09-15T21:27:27.204Z,0.70
2022-09-15T21:29:55.456Z,0.73
2022-09-15T21:32:24.353Z,0.90
2022-09-15T21:34:55.925Z,0.70
2022-09-15T21:37:26.242Z,1.20
2022-09-15T21:39:54.522Z,1.30
2022-09-15T21:42:22.542Z,0.90
2022-09-15T21:44:50.866Z,0.70
2022-09-15T21:47:19.341Z,0.82
2022-09-15T21:49:47.514Z,0.70
2022-09-15T21:52:16.953Z,0.90
2022-09-15T21:54:45.015Z,0.70
2022-09-15T21:57:14.282Z,1.00
2022-09-15T21:59:42.352Z,0.70
2022-09-15T22:02:11.582Z,0.90
2022-09-15T22:04:39.898Z,0.80
2022-09-15T22:07:07.978Z,0.75
2022-09-15T22:09:38.665Z,0.70
2022-09-15T22:12:07.310Z,1.13
2022-09-15T22:14:35.563Z,0.80
2022-09-15T22:17:03.621Z,0.70
2022-09-15T22:19:31.660Z,1.27
2022-09-15T22:21:59.661Z,1.10
2022-09-15T22:24:27.755Z,0.90
2022-09-15T22:26:57.126Z,0.80
2022-09-15T22:29:25.218Z,0.80
2022-09-15T22:31:53.319Z,0.60
2022-09-15T22:34:21.570Z,0.98
2022-09-15T22:36:49.545Z,0.60
2022-09-15T22:39:17.609Z,0.90
2022-09-15T22:41:45.672Z,0.90
2022-09-15T22:44:21.365Z,0.98
2022-09-15T22:46:51.244Z,1.25
2022-09-15T22:49:19.790Z,0.90
2022-09-15T22:51:47.819Z,0.80
2022-09-15T22:54:16.105Z,1.00
2022-09-15T22:56:44.117Z,0.70
2022-09-15T22:59:13.649Z,1.00
2022-09-15T23:01:43.425Z,1.00
2022-09-15T23:04:11.722Z,1.00
2022-09-15T23:06:39.744Z,1.00
2022-09-15T23:09:10.643Z,1.42
2022-09-15T23:11:40.619Z,1.00
2022-09-15T23:14:13.491Z,0.93
2022-09-15T23:16:43.309Z,1.17
2022-09-15T23:19:13.659Z,0.77
2022-09-15T23:21:41.731Z,1.05
2022-09-15T23:24:12.412Z,1.20
2022-09-15T23:26:40.587Z,0.95
2022-09-15T23:29:08.680Z,1.33
2022-09-15T23:31:36.754Z,2.20
2022-09-15T23:34:06.153Z,1.65
2022-09-15T23:36:34.188Z,1.00
2022-09-15T23:39:02.252Z,1.17
2022-09-15T23:41:30.310Z,1.10
2022-09-15T23:43:59.842Z,0.88
2022-09-15T23:46:28.100Z,0.80
2022-09-15T23:48:56.217Z,0.82
2022-09-15T23:51:25.642Z,0.82
2022-09-15T23:53:53.960Z,0.73
2022-09-15T23:56:22.027Z,0.82
2022-09-15T23:58:50.320Z,0.70
